sensor_id;sensor_type;location;lat;lon;timestamp;temperature;humidity
52415;DHT22;38340;52.964;6.086;2023-07-13T00:02:15;17.30;99.90
52415;DHT22;38340;52.964;6.086;2023-07-13T00:04:41;17.30;99.90
52415;DHT22;38340;52.964;6.086;2023-07-13T00:07:08;17.30;99.90
52415;DHT22;38340;52.964;6.086;2023-07-13T00:09:34;17.30;99.90
52415;DHT22;38340;52.964;6.086;2023-07-13T00:12:00;17.30;99.90
52415;DHT22;38340;52.964;6.086;2023-07-13T00:14:27;17.30;99.90
52415;DHT22;38340;52.964;6.086;2023-07-13T00:16:53;17.20;99.90
52415;DHT22;38340;52.964;6.086;2023-07-13T00:19:19;17.20;99.90
52415;DHT22;38340;52.964;6.086;2023-07-13T00:21:45;17.20;99.90
52415;DHT22;38340;52.964;6.086;2023-07-13T00:24:14;17.20;99.90
52415;DHT22;38340;52.964;6.086;2023-07-13T00:26:40;17.10;99.90
52415;DHT22;38340;52.964;6.086;2023-07-13T00:29:06;17.10;99.90
52415;DHT22;38340;52.964;6.086;2023-07-13T00:31:34;17.10;99.90
52415;DHT22;38340;52.964;6.086;2023-07-13T00:34:01;17.10;99.90
52415;DHT22;38340;52.964;6.086;2023-07-13T00:36:27;17.00;99.90
52415;DHT22;38340;52.964;6.086;2023-07-13T00:38:53;17.00;99.90
52415;DHT22;38340;52.964;6.086;2023-07-13T00:41:18;16.90;99.90
52415;DHT22;38340;52.964;6.086;2023-07-13T00:43:44;16.90;99.90
52415;DHT22;38340;52.964;6.086;2023-07-13T00:46:28;16.90;99.90
52415;DHT22;38340;52.964;6.086;2023-07-13T00:48:57;16.90;99.90
52415;DHT22;38340;52.964;6.086;2023-07-13T00:51:28;16.80;99.90
52415;DHT22;38340;52.964;6.086;2023-07-13T00:53:58;16.80;99.90
52415;DHT22;38340;52.964;6.086;2023-07-13T00:56:25;16.70;99.90
52415;DHT22;38340;52.964;6.086;2023-07-13T00:58:52;16.70;99.90
52415;DHT22;38340;52.964;6.086;2023-07-13T01:01:18;16.70;99.90
52415;DHT22;38340;52.964;6.086;2023-07-13T01:03:44;16.60;99.90
52415;DHT22;38340;52.964;6.086;2023-07-13T01:06:10;16.60;99.90
52415;DHT22;38340;52.964;6.086;2023-07-13T01:08:36;16.70;99.90
52415;DHT22;38340;52.964;6.086;2023-07-13T01:11:02;16.60;99.90
52415;DHT22;38340;52.964;6.086;2023-07-13T01:13:27;16.70;99.90
52415;DHT22;38340;52.964;6.086;2023-07-13T01:15:55;16.70;99.90
52415;DHT22;38340;52.964;6.086;2023-07-13T01:18:26;16.70;99.90
52415;DHT22;38340;52.964;6.086;2023-07-13T01:21:01;16.60;99.90
52415;DHT22;38340;52.964;6.086;2023-07-13T01:23:29;16.60;99.90
52415;DHT22;38340;52.964;6.086;2023-07-13T01:25:56;16.60;99.90
52415;DHT22;38340;52.964;6.086;2023-07-13T01:28:23;16.50;99.90
52415;DHT22;38340;52.964;6.086;2023-07-13T01:30:53;16.50;99.90
52415;DHT22;38340;52.964;6.086;2023-07-13T01:33:19;16.40;99.90
52415;DHT22;38340;52.964;6.086;2023-07-13T01:35:46;16.40;99.90
52415;DHT22;38340;52.964;6.086;2023-07-13T01:38:17;16.30;99.90
52415;DHT22;38340;52.964;6.086;2023-07-13T01:40:43;16.40;99.90
52415;DHT22;38340;52.964;6.086;2023-07-13T01:43:09;16.30;99.90
52415;DHT22;38340;52.964;6.086;2023-07-13T01:45:35;16.30;99.90
52415;DHT22;38340;52.964;6.086;2023-07-13T01:48:01;16.30;99.90
52415;DHT22;38340;52.964;6.086;2023-07-13T01:50:26;16.20;99.90
52415;DHT22;38340;52.964;6.086;2023-07-13T01:52:53;16.20;99.90
52415;DHT22;38340;52.964;6.086;2023-07-13T01:55:19;16.20;99.90
52415;DHT22;38340;52.964;6.086;2023-07-13T01:57:45;16.10;99.90
52415;DHT22;38340;52.964;6.086;2023-07-13T02:00:12;16.10;99.90
52415;DHT22;38340;52.964;6.086;2023-07-13T02:02:38;16.10;99.90
52415;DHT22;38340;52.964;6.086;2023-07-13T02:05:05;16.10;99.90
52415;DHT22;38340;52.964;6.086;2023-07-13T02:07:31;16.00;99.90
52415;DHT22;38340;52.964;6.086;2023-07-13T02:09:56;16.00;99.90
52415;DHT22;38340;52.964;6.086;2023-07-13T02:12:22;15.90;99.90
52415;DHT22;38340;52.964;6.086;2023-07-13T02:14:48;15.90;99.90
52415;DHT22;38340;52.964;6.086;2023-07-13T02:17:13;15.90;99.90
52415;DHT22;38340;52.964;6.086;2023-07-13T02:19:39;15.90;99.90
52415;DHT22;38340;52.964;6.086;2023-07-13T02:22:05;15.80;99.90
52415;DHT22;38340;52.964;6.086;2023-07-13T02:24:31;15.80;99.90
52415;DHT22;38340;52.964;6.086;2023-07-13T02:26:57;15.80;99.90
52415;DHT22;38340;52.964;6.086;2023-07-13T02:29:23;15.80;99.90
52415;DHT22;38340;52.964;6.086;2023-07-13T02:31:48;15.80;99.90
52415;DHT22;38340;52.964;6.086;2023-07-13T02:34:14;15.80;99.90
52415;DHT22;38340;52.964;6.086;2023-07-13T02:36:40;15.70;99.90
52415;DHT22;38340;52.964;6.086;2023-07-13T02:39:06;15.70;99.90
52415;DHT22;38340;52.964;6.086;2023-07-13T02:41:32;15.70;99.90
52415;DHT22;38340;52.964;6.086;2023-07-13T02:43:59;15.70;99.90
52415;DHT22;38340;52.964;6.086;2023-07-13T02:46:36;15.70;99.90
52415;DHT22;38340;52.964;6.086;2023-07-13T02:49:03;15.60;99.90
52415;DHT22;38340;52.964;6.086;2023-07-13T02:51:28;15.60;99.90
52415;DHT22;38340;52.964;6.086;2023-07-13T02:53:55;15.60;99.90
52415;DHT22;38340;52.964;6.086;2023-07-13T02:56:25;15.60;99.90
52415;DHT22;38340;52.964;6.086;2023-07-13T02:58:52;15.50;99.90
52415;DHT22;38340;52.964;6.086;2023-07-13T03:01:17;15.60;99.90
52415;DHT22;38340;52.964;6.086;2023-07-13T03:03:47;15.60;99.90
52415;DHT22;38340;52.964;6.086;2023-07-13T03:06:15;15.60;99.90
52415;DHT22;38340;52.964;6.086;2023-07-13T03:08:41;15.60;99.90
52415;DHT22;38340;52.964;6.086;2023-07-13T03:11:18;15.60;99.90
52415;DHT22;38340;52.964;6.086;2023-07-13T03:13:44;15.70;99.90
52415;DHT22;38340;52.964;6.086;2023-07-13T03:16:11;15.70;99.90
52415;DHT22;38340;52.964;6.086;2023-07-13T03:18:37;15.80;99.90
52415;DHT22;38340;52.964;6.086;2023-07-13T03:21:04;15.80;99.90
52415;DHT22;38340;52.964;6.086;2023-07-13T03:23:30;15.80;99.90
52415;DHT22;38340;52.964;6.086;2023-07-13T03:26:05;15.80;99.90
52415;DHT22;38340;52.964;6.086;2023-07-13T03:28:32;15.80;99.90
52415;DHT22;38340;52.964;6.086;2023-07-13T03:31:02;15.70;99.90
52415;DHT22;38340;52.964;6.086;2023-07-13T03:33:28;15.70;99.90
52415;DHT22;38340;52.964;6.086;2023-07-13T03:35:54;15.60;99.90
52415;DHT22;38340;52.964;6.086;2023-07-13T03:38:19;15.60;99.90
52415;DHT22;38340;52.964;6.086;2023-07-13T03:40:45;15.60;99.90
52415;DHT22;38340;52.964;6.086;2023-07-13T03:43:10;15.50;99.90
52415;DHT22;38340;52.964;6.086;2023-07-13T03:45:38;15.60;99.90
52415;DHT22;38340;52.964;6.086;2023-07-13T03:48:04;15.60;99.90
52415;DHT22;38340;52.964;6.086;2023-07-13T03:50:30;15.70;99.90
52415;DHT22;38340;52.964;6.086;2023-07-13T03:52:58;15.70;99.90
52415;DHT22;38340;52.964;6.086;2023-07-13T03:55:23;15.80;99.90
52415;DHT22;38340;52.964;6.086;2023-07-13T03:57:58;15.80;99.90
52415;DHT22;38340;52.964;6.086;2023-07-13T04:00:24;15.90;99.90
52415;DHT22;38340;52.964;6.086;2023-07-13T04:02:50;15.90;99.90
52415;DHT22;38340;52.964;6.086;2023-07-13T04:05:16;16.00;99.90
52415;DHT22;38340;52.964;6.086;2023-07-13T04:07:42;16.00;99.90
52415;DHT22;38340;52.964;6.086;2023-07-13T04:10:08;16.20;99.90
52415;DHT22;38340;52.964;6.086;2023-07-13T04:12:34;16.20;99.90
52415;DHT22;38340;52.964;6.086;2023-07-13T04:15:00;16.30;99.90
52415;DHT22;38340;52.964;6.086;2023-07-13T04:17:26;16.30;99.90
52415;DHT22;38340;52.964;6.086;2023-07-13T04:19:51;16.30;99.90
52415;DHT22;38340;52.964;6.086;2023-07-13T04:22:17;16.30;99.90
52415;DHT22;38340;52.964;6.086;2023-07-13T04:24:43;16.30;99.90
52415;DHT22;38340;52.964;6.086;2023-07-13T04:27:09;16.30;99.90
52415;DHT22;38340;52.964;6.086;2023-07-13T04:29:35;16.40;99.90
52415;DHT22;38340;52.964;6.086;2023-07-13T04:32:00;16.60;99.90
52415;DHT22;38340;52.964;6.086;2023-07-13T04:34:26;17.00;99.90
52415;DHT22;38340;52.964;6.086;2023-07-13T04:36:52;17.50;99.90
52415;DHT22;38340;52.964;6.086;2023-07-13T04:39:17;17.70;99.90
52415;DHT22;38340;52.964;6.086;2023-07-13T04:41:43;18.00;99.90
52415;DHT22;38340;52.964;6.086;2023-07-13T04:44:09;18.30;99.90
52415;DHT22;38340;52.964;6.086;2023-07-13T04:46:35;18.60;99.90
52415;DHT22;38340;52.964;6.086;2023-07-13T04:49:00;19.00;99.90
52415;DHT22;38340;52.964;6.086;2023-07-13T04:51:28;19.30;99.90
52415;DHT22;38340;52.964;6.086;2023-07-13T04:53:54;19.70;99.90
52415;DHT22;38340;52.964;6.086;2023-07-13T04:56:20;19.70;99.90
52415;DHT22;38340;52.964;6.086;2023-07-13T04:58:46;19.80;99.90
52415;DHT22;38340;52.964;6.086;2023-07-13T05:01:11;19.80;99.90
52415;DHT22;38340;52.964;6.086;2023-07-13T05:03:39;20.00;99.90
52415;DHT22;38340;52.964;6.086;2023-07-13T05:06:07;20.40;99.90
52415;DHT22;38340;52.964;6.086;2023-07-13T05:08:35;20.70;99.90
52415;DHT22;38340;52.964;6.086;2023-07-13T05:11:01;20.90;99.90
52415;DHT22;38340;52.964;6.086;2023-07-13T05:13:27;20.80;99.90
52415;DHT22;38340;52.964;6.086;2023-07-13T05:16:03;20.10;99.90
52415;DHT22;38340;52.964;6.086;2023-07-13T05:18:29;19.50;99.90
52415;DHT22;38340;52.964;6.086;2023-07-13T05:21:04;19.10;99.90
52415;DHT22;38340;52.964;6.086;2023-07-13T05:23:31;18.90;99.90
52415;DHT22;38340;52.964;6.086;2023-07-13T05:25:57;18.80;99.90
52415;DHT22;38340;52.964;6.086;2023-07-13T05:28:22;18.60;99.90
52415;DHT22;38340;52.964;6.086;2023-07-13T05:30:49;18.40;99.90
52415;DHT22;38340;52.964;6.086;2023-07-13T05:33:15;18.60;99.90
52415;DHT22;38340;52.964;6.086;2023-07-13T05:35:41;18.90;99.90
52415;DHT22;38340;52.964;6.086;2023-07-13T05:38:07;19.10;99.90
52415;DHT22;38340;52.964;6.086;2023-07-13T05:40:32;19.30;99.90
52415;DHT22;38340;52.964;6.086;2023-07-13T05:42:58;19.50;99.90
52415;DHT22;38340;52.964;6.086;2023-07-13T05:45:24;20.00;99.90
52415;DHT22;38340;52.964;6.086;2023-07-13T05:47:49;20.20;99.90
52415;DHT22;38340;52.964;6.086;2023-07-13T05:50:15;20.60;99.90
52415;DHT22;38340;52.964;6.086;2023-07-13T05:52:41;20.80;99.90
52415;DHT22;38340;52.964;6.086;2023-07-13T05:55:07;20.70;99.90
52415;DHT22;38340;52.964;6.086;2023-07-13T05:57:33;20.70;99.90
52415;DHT22;38340;52.964;6.086;2023-07-13T05:59:58;20.90;99.90
52415;DHT22;38340;52.964;6.086;2023-07-13T06:02:24;20.80;99.90
52415;DHT22;38340;52.964;6.086;2023-07-13T06:04:51;20.60;99.90
52415;DHT22;38340;52.964;6.086;2023-07-13T06:07:16;20.60;99.90
52415;DHT22;38340;52.964;6.086;2023-07-13T06:09:42;20.80;99.90
52415;DHT22;38340;52.964;6.086;2023-07-13T06:12:08;20.80;99.90
52415;DHT22;38340;52.964;6.086;2023-07-13T06:14:33;20.50;99.90
52415;DHT22;38340;52.964;6.086;2023-07-13T06:16:59;20.30;99.90
52415;DHT22;38340;52.964;6.086;2023-07-13T06:19:25;20.30;99.90
52415;DHT22;38340;52.964;6.086;2023-07-13T06:21:50;20.40;99.90
52415;DHT22;38340;52.964;6.086;2023-07-13T06:24:16;20.30;99.90
52415;DHT22;38340;52.964;6.086;2023-07-13T06:26:42;20.20;99.90
52415;DHT22;38340;52.964;6.086;2023-07-13T06:29:08;20.20;99.90
52415;DHT22;38340;52.964;6.086;2023-07-13T06:31:33;20.10;99.90
52415;DHT22;38340;52.964;6.086;2023-07-13T06:33:59;20.00;99.90
52415;DHT22;38340;52.964;6.086;2023-07-13T06:36:25;20.00;99.90
52415;DHT22;38340;52.964;6.086;2023-07-13T06:38:50;19.90;99.90
52415;DHT22;38340;52.964;6.086;2023-07-13T06:41:16;19.70;99.90
52415;DHT22;38340;52.964;6.086;2023-07-13T06:43:42;19.50;99.90
52415;DHT22;38340;52.964;6.086;2023-07-13T06:46:08;19.70;99.90
52415;DHT22;38340;52.964;6.086;2023-07-13T06:48:34;19.70;99.90
52415;DHT22;38340;52.964;6.086;2023-07-13T06:50:59;19.70;99.90
52415;DHT22;38340;52.964;6.086;2023-07-13T06:53:25;19.70;99.90
52415;DHT22;38340;52.964;6.086;2023-07-13T06:55:51;19.80;99.90
52415;DHT22;38340;52.964;6.086;2023-07-13T06:58:17;20.00;99.90
52415;DHT22;38340;52.964;6.086;2023-07-13T07:00:44;20.40;99.90
52415;DHT22;38340;52.964;6.086;2023-07-13T07:03:09;20.50;99.90
52415;DHT22;38340;52.964;6.086;2023-07-13T07:05:35;20.70;99.90
52415;DHT22;38340;52.964;6.086;2023-07-13T07:08:01;20.90;99.90
52415;DHT22;38340;52.964;6.086;2023-07-13T07:10:28;20.90;99.90
52415;DHT22;38340;52.964;6.086;2023-07-13T07:12:54;20.70;99.90
52415;DHT22;38340;52.964;6.086;2023-07-13T07:15:20;20.60;99.90
52415;DHT22;38340;52.964;6.086;2023-07-13T07:17:45;20.30;99.90
52415;DHT22;38340;52.964;6.086;2023-07-13T07:20:12;20.20;99.90
52415;DHT22;38340;52.964;6.086;2023-07-13T07:22:37;20.30;99.90
52415;DHT22;38340;52.964;6.086;2023-07-13T07:25:03;20.30;99.90
52415;DHT22;38340;52.964;6.086;2023-07-13T07:27:29;20.40;99.90
52415;DHT22;38340;52.964;6.086;2023-07-13T07:29:55;20.70;99.90
52415;DHT22;38340;52.964;6.086;2023-07-13T07:32:23;20.80;99.90
52415;DHT22;38340;52.964;6.086;2023-07-13T07:34:49;20.70;99.90
52415;DHT22;38340;52.964;6.086;2023-07-13T07:37:15;20.70;99.90
52415;DHT22;38340;52.964;6.086;2023-07-13T07:39:40;20.60;99.90
52415;DHT22;38340;52.964;6.086;2023-07-13T07:42:06;20.50;99.90
52415;DHT22;38340;52.964;6.086;2023-07-13T07:44:32;20.30;99.90
52415;DHT22;38340;52.964;6.086;2023-07-13T07:46:59;20.20;99.90
52415;DHT22;38340;52.964;6.086;2023-07-13T07:49:25;20.10;99.90
52415;DHT22;38340;52.964;6.086;2023-07-13T07:51:50;19.90;99.90
52415;DHT22;38340;52.964;6.086;2023-07-13T07:54:16;20.00;99.90
52415;DHT22;38340;52.964;6.086;2023-07-13T07:56:42;20.10;99.90
52415;DHT22;38340;52.964;6.086;2023-07-13T07:59:08;20.20;99.90
52415;DHT22;38340;52.964;6.086;2023-07-13T08:01:34;20.10;99.90
52415;DHT22;38340;52.964;6.086;2023-07-13T08:03:59;20.20;99.90
52415;DHT22;38340;52.964;6.086;2023-07-13T08:06:25;20.10;99.90
52415;DHT22;38340;52.964;6.086;2023-07-13T08:08:51;20.10;99.90
52415;DHT22;38340;52.964;6.086;2023-07-13T08:11:17;20.10;99.90
52415;DHT22;38340;52.964;6.086;2023-07-13T08:13:43;20.20;99.90
52415;DHT22;38340;52.964;6.086;2023-07-13T08:16:08;20.20;99.90
52415;DHT22;38340;52.964;6.086;2023-07-13T08:18:34;20.50;99.90
52415;DHT22;38340;52.964;6.086;2023-07-13T08:21:05;20.60;99.90
52415;DHT22;38340;52.964;6.086;2023-07-13T08:23:31;20.50;99.90
52415;DHT22;38340;52.964;6.086;2023-07-13T08:25:57;20.20;99.90
52415;DHT22;38340;52.964;6.086;2023-07-13T08:28:24;20.30;99.90
52415;DHT22;38340;52.964;6.086;2023-07-13T08:30:50;20.50;99.90
52415;DHT22;38340;52.964;6.086;2023-07-13T08:33:17;20.50;99.90
52415;DHT22;38340;52.964;6.086;2023-07-13T08:35:46;20.70;99.90
52415;DHT22;38340;52.964;6.086;2023-07-13T08:38:12;20.70;99.90
52415;DHT22;38340;52.964;6.086;2023-07-13T08:40:39;20.70;99.90
52415;DHT22;38340;52.964;6.086;2023-07-13T08:43:13;20.70;99.90
52415;DHT22;38340;52.964;6.086;2023-07-13T08:45:45;20.90;99.90
52415;DHT22;38340;52.964;6.086;2023-07-13T08:48:17;21.20;99.90
52415;DHT22;38340;52.964;6.086;2023-07-13T08:51:17;21.30;99.90
52415;DHT22;38340;52.964;6.086;2023-07-13T08:53:49;21.50;99.90
52415;DHT22;38340;52.964;6.086;2023-07-13T08:56:24;21.40;99.90
52415;DHT22;38340;52.964;6.086;2023-07-13T08:58:55;21.40;99.90
52415;DHT22;38340;52.964;6.086;2023-07-13T09:04:59;21.10;99.90
52415;DHT22;38340;52.964;6.086;2023-07-13T09:07:32;21.40;99.90
52415;DHT22;38340;52.964;6.086;2023-07-13T09:10:23;21.40;99.90
52415;DHT22;38340;52.964;6.086;2023-07-13T09:15:34;21.70;99.90
52415;DHT22;38340;52.964;6.086;2023-07-13T09:21:00;22.50;99.90
52415;DHT22;38340;52.964;6.086;2023-07-13T09:23:28;22.50;99.90
52415;DHT22;38340;52.964;6.086;2023-07-13T09:26:02;22.30;99.90
52415;DHT22;38340;52.964;6.086;2023-07-13T09:28:33;22.20;99.90
52415;DHT22;38340;52.964;6.086;2023-07-13T09:31:23;21.60;99.90
52415;DHT22;38340;52.964;6.086;2023-07-13T09:33:49;21.20;99.90
52415;DHT22;38340;52.964;6.086;2023-07-13T09:36:25;20.80;99.90
52415;DHT22;38340;52.964;6.086;2023-07-13T09:39:02;20.50;99.90
52415;DHT22;38340;52.964;6.086;2023-07-13T09:44:14;20.50;99.90
52415;DHT22;38340;52.964;6.086;2023-07-13T09:47:00;20.60;99.90
52415;DHT22;38340;52.964;6.086;2023-07-13T09:49:29;20.60;99.90
52415;DHT22;38340;52.964;6.086;2023-07-13T09:52:00;20.60;99.90
52415;DHT22;38340;52.964;6.086;2023-07-13T09:54:27;20.60;99.90
52415;DHT22;38340;52.964;6.086;2023-07-13T09:56:57;20.40;99.90
52415;DHT22;38340;52.964;6.086;2023-07-13T09:59:27;20.20;99.90
52415;DHT22;38340;52.964;6.086;2023-07-13T10:01:54;20.10;99.90
52415;DHT22;38340;52.964;6.086;2023-07-13T10:04:26;20.10;99.90
52415;DHT22;38340;52.964;6.086;2023-07-13T10:07:05;19.90;99.90
52415;DHT22;38340;52.964;6.086;2023-07-13T10:09:31;19.70;99.90
52415;DHT22;38340;52.964;6.086;2023-07-13T10:11:58;19.70;99.90
52415;DHT22;38340;52.964;6.086;2023-07-13T10:14:23;19.70;99.90
52415;DHT22;38340;52.964;6.086;2023-07-13T10:16:55;19.70;99.90
52415;DHT22;38340;52.964;6.086;2023-07-13T10:19:25;19.80;99.90
52415;DHT22;38340;52.964;6.086;2023-07-13T10:21:57;19.70;99.90
52415;DHT22;38340;52.964;6.086;2023-07-13T10:24:31;19.90;99.90
52415;DHT22;38340;52.964;6.086;2023-07-13T10:27:15;20.20;99.90
52415;DHT22;38340;52.964;6.086;2023-07-13T10:29:55;20.80;99.90
52415;DHT22;38340;52.964;6.086;2023-07-13T10:32:24;21.60;99.90
52415;DHT22;38340;52.964;6.086;2023-07-13T10:34:51;22.10;99.90
52415;DHT22;38340;52.964;6.086;2023-07-13T10:37:43;22.30;99.90
52415;DHT22;38340;52.964;6.086;2023-07-13T10:40:18;22.20;99.90
52415;DHT22;38340;52.964;6.086;2023-07-13T10:42:48;21.90;99.90
52415;DHT22;38340;52.964;6.086;2023-07-13T10:45:18;21.70;99.90
52415;DHT22;38340;52.964;6.086;2023-07-13T10:47:45;21.80;99.90
52415;DHT22;38340;52.964;6.086;2023-07-13T10:50:22;22.00;99.90
52415;DHT22;38340;52.964;6.086;2023-07-13T10:52:50;22.00;99.90
52415;DHT22;38340;52.964;6.086;2023-07-13T10:58:12;22.50;99.90
52415;DHT22;38340;52.964;6.086;2023-07-13T11:01:14;22.80;99.90
52415;DHT22;38340;52.964;6.086;2023-07-13T11:03:51;22.90;99.90
52415;DHT22;38340;52.964;6.086;2023-07-13T11:09:19;22.80;99.90
52415;DHT22;38340;52.964;6.086;2023-07-13T11:11:45;22.70;99.90
52415;DHT22;38340;52.964;6.086;2023-07-13T11:14:34;22.80;99.90
52415;DHT22;38340;52.964;6.086;2023-07-13T11:19:51;22.70;99.90
52415;DHT22;38340;52.964;6.086;2023-07-13T11:22:25;22.60;99.90
52415;DHT22;38340;52.964;6.086;2023-07-13T11:25:28;22.40;99.90
52415;DHT22;38340;52.964;6.086;2023-07-13T11:30:37;22.70;99.90
52415;DHT22;38340;52.964;6.086;2023-07-13T11:33:18;22.90;99.90
52415;DHT22;38340;52.964;6.086;2023-07-13T11:35:58;23.20;99.90
52415;DHT22;38340;52.964;6.086;2023-07-13T11:38:30;23.30;99.90
52415;DHT22;38340;52.964;6.086;2023-07-13T11:41:00;23.00;99.90
52415;DHT22;38340;52.964;6.086;2023-07-13T11:43:29;23.10;99.90
52415;DHT22;38340;52.964;6.086;2023-07-13T11:45:55;22.90;99.90
52415;DHT22;38340;52.964;6.086;2023-07-13T11:48:25;22.70;99.90
52415;DHT22;38340;52.964;6.086;2023-07-13T11:51:00;22.60;99.90
52415;DHT22;38340;52.964;6.086;2023-07-13T11:53:29;22.40;99.90
52415;DHT22;38340;52.964;6.086;2023-07-13T11:55:57;22.40;99.90
52415;DHT22;38340;52.964;6.086;2023-07-13T11:58:25;22.70;99.90
52415;DHT22;38340;52.964;6.086;2023-07-13T12:00:52;22.70;99.90
52415;DHT22;38340;52.964;6.086;2023-07-13T12:03:21;22.50;99.90
52415;DHT22;38340;52.964;6.086;2023-07-13T12:06:05;22.30;99.90
52415;DHT22;38340;52.964;6.086;2023-07-13T12:08:37;22.30;99.90
52415;DHT22;38340;52.964;6.086;2023-07-13T12:11:09;22.40;99.90
52415;DHT22;38340;52.964;6.086;2023-07-13T12:13:38;22.30;99.90
52415;DHT22;38340;52.964;6.086;2023-07-13T12:16:31;22.20;99.90
52415;DHT22;38340;52.964;6.086;2023-07-13T12:19:01;22.50;99.90
52415;DHT22;38340;52.964;6.086;2023-07-13T12:21:32;22.70;99.90
52415;DHT22;38340;52.964;6.086;2023-07-13T12:23:58;23.00;99.90
52415;DHT22;38340;52.964;6.086;2023-07-13T12:26:24;22.90;99.90
52415;DHT22;38340;52.964;6.086;2023-07-13T12:28:53;23.00;99.90
52415;DHT22;38340;52.964;6.086;2023-07-13T12:31:45;23.10;99.90
52415;DHT22;38340;52.964;6.086;2023-07-13T12:34:15;23.20;99.90
52415;DHT22;38340;52.964;6.086;2023-07-13T12:36:56;23.00;99.90
52415;DHT22;38340;52.964;6.086;2023-07-13T12:39:57;23.10;99.30
52415;DHT22;38340;52.964;6.086;2023-07-13T12:42:28;23.00;99.90
52415;DHT22;38340;52.964;6.086;2023-07-13T12:47:57;23.00;99.90
52415;DHT22;38340;52.964;6.086;2023-07-13T12:50:30;23.00;99.90
52415;DHT22;38340;52.964;6.086;2023-07-13T12:53:04;22.60;99.90
52415;DHT22;38340;52.964;6.086;2023-07-13T12:55:44;22.60;99.90
52415;DHT22;38340;52.964;6.086;2023-07-13T12:58:24;22.60;99.90
52415;DHT22;38340;52.964;6.086;2023-07-13T13:00:51;22.40;99.90
52415;DHT22;38340;52.964;6.086;2023-07-13T13:03:32;22.10;99.90
52415;DHT22;38340;52.964;6.086;2023-07-13T13:08:47;22.00;99.90
52415;DHT22;38340;52.964;6.086;2023-07-13T13:11:17;22.00;99.90
52415;DHT22;38340;52.964;6.086;2023-07-13T13:13:43;22.10;99.90
52415;DHT22;38340;52.964;6.086;2023-07-13T13:16:20;22.30;99.90
52415;DHT22;38340;52.964;6.086;2023-07-13T13:18:46;22.60;99.90
52415;DHT22;38340;52.964;6.086;2023-07-13T13:21:11;23.00;99.90
52415;DHT22;38340;52.964;6.086;2023-07-13T13:23:37;23.20;99.90
52415;DHT22;38340;52.964;6.086;2023-07-13T13:26:08;23.40;99.90
52415;DHT22;38340;52.964;6.086;2023-07-13T13:28:34;23.10;99.90
52415;DHT22;38340;52.964;6.086;2023-07-13T13:31:00;22.70;99.90
52415;DHT22;38340;52.964;6.086;2023-07-13T13:33:26;22.70;99.90
52415;DHT22;38340;52.964;6.086;2023-07-13T13:35:51;22.10;99.90
52415;DHT22;38340;52.964;6.086;2023-07-13T13:38:27;22.10;99.90
52415;DHT22;38340;52.964;6.086;2023-07-13T13:40:53;22.10;99.90
52415;DHT22;38340;52.964;6.086;2023-07-13T13:43:25;21.80;99.90
52415;DHT22;38340;52.964;6.086;2023-07-13T13:45:58;21.50;99.90
52415;DHT22;38340;52.964;6.086;2023-07-13T13:48:33;21.60;99.90
52415;DHT22;38340;52.964;6.086;2023-07-13T13:51:00;22.00;99.90
52415;DHT22;38340;52.964;6.086;2023-07-13T13:53:26;22.00;99.90
52415;DHT22;38340;52.964;6.086;2023-07-13T13:55:52;22.10;99.90
52415;DHT22;38340;52.964;6.086;2023-07-13T13:58:21;22.20;99.90
52415;DHT22;38340;52.964;6.086;2023-07-13T14:00:47;22.40;99.90
52415;DHT22;38340;52.964;6.086;2023-07-13T14:03:18;22.50;99.90
52415;DHT22;38340;52.964;6.086;2023-07-13T14:05:44;22.60;99.90
52415;DHT22;38340;52.964;6.086;2023-07-13T14:08:18;22.60;99.90
52415;DHT22;38340;52.964;6.086;2023-07-13T14:10:46;22.60;99.90
52415;DHT22;38340;52.964;6.086;2023-07-13T14:13:19;22.40;99.90
52415;DHT22;38340;52.964;6.086;2023-07-13T14:15:45;22.50;99.90
52415;DHT22;38340;52.964;6.086;2023-07-13T14:18:11;22.60;99.90
52415;DHT22;38340;52.964;6.086;2023-07-13T14:20:37;22.60;99.90
52415;DHT22;38340;52.964;6.086;2023-07-13T14:23:03;22.50;99.90
52415;DHT22;38340;52.964;6.086;2023-07-13T14:25:29;22.50;99.90
52415;DHT22;38340;52.964;6.086;2023-07-13T14:27:58;22.50;99.90
52415;DHT22;38340;52.964;6.086;2023-07-13T14:30:26;22.60;99.90
52415;DHT22;38340;52.964;6.086;2023-07-13T14:32:52;22.80;99.90
52415;DHT22;38340;52.964;6.086;2023-07-13T14:35:21;22.90;99.90
52415;DHT22;38340;52.964;6.086;2023-07-13T14:37:49;22.80;99.90
52415;DHT22;38340;52.964;6.086;2023-07-13T14:40:17;22.90;99.90
52415;DHT22;38340;52.964;6.086;2023-07-13T14:42:43;22.40;99.90
52415;DHT22;38340;52.964;6.086;2023-07-13T14:45:17;22.10;99.90
52415;DHT22;38340;52.964;6.086;2023-07-13T14:47:44;22.00;99.90
52415;DHT22;38340;52.964;6.086;2023-07-13T14:50:18;21.80;99.90
52415;DHT22;38340;52.964;6.086;2023-07-13T14:52:45;21.80;99.90
52415;DHT22;38340;52.964;6.086;2023-07-13T14:55:14;21.80;99.90
52415;DHT22;38340;52.964;6.086;2023-07-13T14:57:39;21.80;99.90
52415;DHT22;38340;52.964;6.086;2023-07-13T15:00:17;21.80;99.90
52415;DHT22;38340;52.964;6.086;2023-07-13T15:03:01;21.80;99.90
52415;DHT22;38340;52.964;6.086;2023-07-13T15:05:30;21.50;99.90
52415;DHT22;38340;52.964;6.086;2023-07-13T15:07:59;21.40;99.90
52415;DHT22;38340;52.964;6.086;2023-07-13T15:10:30;21.20;99.90
52415;DHT22;38340;52.964;6.086;2023-07-13T15:13:00;21.50;99.90
52415;DHT22;38340;52.964;6.086;2023-07-13T15:15:31;21.50;99.90
52415;DHT22;38340;52.964;6.086;2023-07-13T15:17:59;21.50;99.90
52415;DHT22;38340;52.964;6.086;2023-07-13T15:20:31;21.50;99.90
52415;DHT22;38340;52.964;6.086;2023-07-13T15:22:58;21.30;99.90
52415;DHT22;38340;52.964;6.086;2023-07-13T15:25:26;21.30;99.90
52415;DHT22;38340;52.964;6.086;2023-07-13T15:27:54;21.10;99.90
52415;DHT22;38340;52.964;6.086;2023-07-13T15:30:21;21.20;99.90
52415;DHT22;38340;52.964;6.086;2023-07-13T15:32:48;21.40;99.90
52415;DHT22;38340;52.964;6.086;2023-07-13T15:35:26;21.50;99.90
52415;DHT22;38340;52.964;6.086;2023-07-13T15:37:52;21.70;99.90
52415;DHT22;38340;52.964;6.086;2023-07-13T15:40:18;21.80;99.90
52415;DHT22;38340;52.964;6.086;2023-07-13T15:42:47;21.70;99.90
52415;DHT22;38340;52.964;6.086;2023-07-13T15:45:24;22.00;99.90
52415;DHT22;38340;52.964;6.086;2023-07-13T15:47:53;22.20;99.90
52415;DHT22;38340;52.964;6.086;2023-07-13T15:50:24;22.40;99.90
52415;DHT22;38340;52.964;6.086;2023-07-13T15:52:54;22.70;99.90
52415;DHT22;38340;52.964;6.086;2023-07-13T15:55:21;22.50;99.90
52415;DHT22;38340;52.964;6.086;2023-07-13T15:57:49;22.60;99.90
52415;DHT22;38340;52.964;6.086;2023-07-13T16:00:26;22.70;99.90
52415;DHT22;38340;52.964;6.086;2023-07-13T16:02:53;22.90;99.90
52415;DHT22;38340;52.964;6.086;2023-07-13T16:05:20;22.90;99.90
52415;DHT22;38340;52.964;6.086;2023-07-13T16:07:49;22.60;99.90
52415;DHT22;38340;52.964;6.086;2023-07-13T16:10:32;22.80;99.90